(°C)
17°
18°
19°
19°
19°
19°
18°
(°C)
17°
17°
18°
18°
17°
16°
16°
VNV
NV
NE
ENE
ENE
ENE
NNE
(km/h)
5-9
4-12
6-14
9-19
13-23
13-23
7-24
(mm)
0
0
0
0
0
0
2.7
(%)
1
5
6
29
48
57
67

Elevația soarelui

/ 20°
sun-icon
UV 5
05:20
21:16
Primul pătrar (26°)
07:03
23:17

METAR pentru Innsbruck (LOWI)

Ora Condiții Temperatură/
Punctul de rouă
Vânt Vizibilitate Vremea Nori Presiune Schimbă Brut
VFR 17°C / 15°C 80º variable 030º to 120º 3kt >10km - Few Clouds 800ft
Broken Clouds 4000ft
1017 No Significant change LOWI 010450Z 08003KT 030V120 9999 FEW008 BKN040 17/15 Q1017 NOSIG
MVFR 16°C / 15°C 80º variable 050º to 130º 4kt >10km - Few Clouds 600ft
Broken Clouds 1300ft
1016 - LOWI 010150Z AUTO 08004KT 050V130 9999 FEW006 BKN013 16/15 Q1016
VFR 15°C / 14°C variable 1kt >10km - Few Clouds 500ft 1016 - LOWI 010050Z AUTO VRB01KT 9999 FEW005 15/14 Q1016
VFR 16°C / 15°C variable 2kt >10km - Clear 1016 - LOWI 302220Z AUTO VRB02KT 9999 NSC 16/15 Q1016
VFR 16°C / 15°C 290º variable 260º to 320º 4kt >10km - Few Clouds 500ft 1016 - LOWI 302150Z AUTO 29004KT 260V320 9999 FEW005 16/15 Q1016
VFR 17°C / 15°C 160º variable 120º to 200º 3kt >10km - Few Clouds 8000ft
Scattered Clouds 11000ft
1016 No Significant change LOWI 302050Z 16003KT 120V200 9999 FEW080 SCT110 17/15 Q1016 NOSIG
VFR 17°C / 16°C variable 2kt >10km - Few Clouds 8000ft
Scattered Clouds 11000ft
1016 No Significant change LOWI 302020Z VRB02KT 9999 FEW080 SCT110 17/16 Q1016 NOSIG
VFR 18°C / 16°C 260º 6kt >10km - Few Clouds 8000ft
Broken Clouds 11000ft
1016 No Significant change LOWI 301950Z 26006KT 9999 FEW080 BKN110 18/16 Q1016 NOSIG
VFR 18°C / 16°C 180º variable 150º to 220º 3kt >10km - Few Clouds 7000ft
Broken Clouds 10000ft
1016 No Significant change LOWI 301920Z 18003KT 150V220 9999 FEW070 BKN100 18/16 Q1016 NOSIG
VFR 18°C / 15°C variable 4kt >10km - Few Clouds 7000ft
Few Clouds 7000ft
Broken Clouds 10000ft
1015 No Significant change LOWI 301850Z VRB04KT 9999 FEW070 FEW070CB BKN100 18/15 Q1015 NOSIG
VFR 18°C / 15°C 280º variable 260º to 320º 9kt >10km - Few Clouds 7000ft
Broken Clouds 11000ft
1014 No Significant change LOWI 301820Z 28009KT 260V320 9999 FEW070 BKN110 18/15 Q1014 NOSIG
VFR 18°C / 15°C 270º variable 210º to 300º 12kt >10km Light Showers Rain 3.00mm precipitation Vertical Visibility of 0ft.
Few Clouds 7000ft
Broken Clouds 11000ft
1014 No Significant change LOWI 301750Z 27012KT 210V300 9999 -SHRA SCT070 FEW070CB BKN110 18/15 Q1014 NOSIG
VFR 18°C / 15°C 250º 22kt Gust 37kt >10km Light Rain in the Vicinity Thunderstorm 1.00mm precipitation Vertical Visibility of 0ft.
Few Clouds 6000ft
Broken Clouds 8000ft
1014 No Significant change LOWI 301720Z 25022G37KT 9999 -RA VCTS SCT060 FEW060CB BKN080 18/15 Q1014 RESHRA NOSIG
VFR 21°C / 14°C 250º variable 210º to 270º 24kt Gust 39kt >10km Thunderstorm Vertical Visibility of 0ft.
Few Clouds 7000ft
Broken Clouds 8000ft
1012 Temporary: Thunderstorm Rain . LOWI 301650Z 25024G39KT 210V270 9999 TS FEW070 FEW070CB BKN080 21/14 Q1012 TEMPO TSRA
VFR 27°C / 14°C 180º variable 120º to 270º 10kt Gust 20kt >10km Thunderstorm Vertical Visibility of 0ft.
Few Clouds 7000ft
Broken Clouds 8000ft
1010 Temporary: Wind 280º 15kt. Gust 35KT. Thunderstorm Rain . LOWI 301620Z 18010G20KT 120V270 9999 TS FEW070 FEW070CB BKN080 27/14 Q1010 TEMPO 28015G35KT TSRA
VFR 28°C / 16°C 50º 15kt >10km in the Vicinity Thunderstorm Vertical Visibility of 0ft.
Few Clouds 7000ft
Broken Clouds 8000ft
1009 Temporary: Wind 280º 15kt. Gust 30KT. Thunderstorm Rain . LOWI 301550Z 05015KT 9999 VCTS FEW070 FEW070CB BKN080 28/16 Q1009 TEMPO 28015G30KT TSRA
VFR 28°C / 16°C 40º 15kt >10km - Few Clouds 7000ft
Scattered Clouds 8000ft
Few Clouds 8000ft
1008 Temporary: from 1530 Wind 280º 15kt. Gust 35KT. Thunderstorm Rain . LOWI 301520Z 04015KT 9999 FEW070 SCT080 FEW080CB 28/16 Q1008 TEMPO FM1530 28015G35KT TSRA
VFR 30°C / 16°C 70º 14kt >10km - Scattered Clouds 8000ft
Few Clouds 8000ft
1009 No Significant change LOWI 301450Z 07014KT 9999 SCT080 FEW080CB 30/16 Q1009 NOSIG
VFR 30°C / 17°C 70º variable 040º to 110º 12kt >10km - Few Clouds 8000ft
Few Clouds 8000ft
1009 No Significant change LOWI 301420Z 07012KT 040V110 9999 FEW080 FEW080CB 30/17 Q1009 NOSIG
VFR 30°C / 18°C 80º 10kt >10km - Few Clouds 7000ft 1010 No Significant change LOWI 301350Z 08010KT 9999 FEW070 30/18 Q1010 NOSIG
VFR 29°C / 17°C 80º variable 030º to 120º 8kt >10km - Few Clouds 7000ft 1010 No Significant change LOWI 301320Z 08008KT 030V120 9999 FEW070 29/17 Q1010 NOSIG
VFR 29°C / 17°C 80º 8kt >10km - Few Clouds 7000ft 1011 No Significant change LOWI 301250Z 08008KT 9999 FEW070 29/17 Q1011 NOSIG
VFR 28°C / 17°C 70º variable 020º to 100º 6kt >10km - Few Clouds 7000ft 1011 No Significant change LOWI 301220Z 07006KT 020V100 9999 FEW070 28/17 Q1011 NOSIG
VFR 27°C / 18°C 70º variable 360º to 100º 5kt >10km - Few Clouds 7000ft 1011 No Significant change LOWI 301150Z 07005KT 360V100 9999 FEW070 27/18 Q1011 NOSIG

VFR

17°C / 15°C

[Mai mult]
Vânt 80º variable 030º to 120º 3kt
Vizibilitate >10km
Vremea -
Nori Few Clouds 800ft
Broken Clouds 4000ft
Presiune 1017
Schimbă No Significant change
Brut LOWI 010450Z 08003KT 030V120 9999 FEW008 BKN040 17/15 Q1017 NOSIG

MVFR

16°C / 15°C

[Mai mult]
Vânt 80º variable 050º to 130º 4kt
Vizibilitate >10km
Vremea -
Nori Few Clouds 600ft
Broken Clouds 1300ft
Presiune 1016
Schimbă -
Brut LOWI 010150Z AUTO 08004KT 050V130 9999 FEW006 BKN013 16/15 Q1016

VFR

15°C / 14°C

[Mai mult]
Vânt variable 1kt
Vizibilitate >10km
Vremea -
Nori Few Clouds 500ft
Presiune 1016
Schimbă -
Brut LOWI 010050Z AUTO VRB01KT 9999 FEW005 15/14 Q1016

VFR

16°C / 15°C

[Mai mult]
Vânt variable 2kt
Vizibilitate >10km
Vremea -
Nori Clear
Presiune 1016
Schimbă -
Brut LOWI 302220Z AUTO VRB02KT 9999 NSC 16/15 Q1016

VFR

16°C / 15°C

[Mai mult]
Vânt 290º variable 260º to 320º 4kt
Vizibilitate >10km
Vremea -
Nori Few Clouds 500ft
Presiune 1016
Schimbă -
Brut LOWI 302150Z AUTO 29004KT 260V320 9999 FEW005 16/15 Q1016

VFR

17°C / 15°C

[Mai mult]
Vânt 160º variable 120º to 200º 3kt
Vizibilitate >10km
Vremea -
Nori Few Clouds 8000ft
Scattered Clouds 11000ft
Presiune 1016
Schimbă No Significant change
Brut LOWI 302050Z 16003KT 120V200 9999 FEW080 SCT110 17/15 Q1016 NOSIG

VFR

17°C / 16°C

[Mai mult]
Vânt variable 2kt
Vizibilitate >10km
Vremea -
Nori Few Clouds 8000ft
Scattered Clouds 11000ft
Presiune 1016
Schimbă No Significant change
Brut LOWI 302020Z VRB02KT 9999 FEW080 SCT110 17/16 Q1016 NOSIG

VFR

18°C / 16°C

[Mai mult]
Vânt 260º 6kt
Vizibilitate >10km
Vremea -
Nori Few Clouds 8000ft
Broken Clouds 11000ft
Presiune 1016
Schimbă No Significant change
Brut LOWI 301950Z 26006KT 9999 FEW080 BKN110 18/16 Q1016 NOSIG

VFR

18°C / 16°C

[Mai mult]
Vânt 180º variable 150º to 220º 3kt
Vizibilitate >10km
Vremea -
Nori Few Clouds 7000ft
Broken Clouds 10000ft
Presiune 1016
Schimbă No Significant change
Brut LOWI 301920Z 18003KT 150V220 9999 FEW070 BKN100 18/16 Q1016 NOSIG

VFR

18°C / 15°C

[Mai mult]
Vânt variable 4kt
Vizibilitate >10km
Vremea -
Nori Few Clouds 7000ft
Few Clouds 7000ft
Broken Clouds 10000ft
Presiune 1015
Schimbă No Significant change
Brut LOWI 301850Z VRB04KT 9999 FEW070 FEW070CB BKN100 18/15 Q1015 NOSIG

VFR

18°C / 15°C

[Mai mult]
Vânt 280º variable 260º to 320º 9kt
Vizibilitate >10km
Vremea -
Nori Few Clouds 7000ft
Broken Clouds 11000ft
Presiune 1014
Schimbă No Significant change
Brut LOWI 301820Z 28009KT 260V320 9999 FEW070 BKN110 18/15 Q1014 NOSIG

VFR

18°C / 15°C

[Mai mult]
Vânt 270º variable 210º to 300º 12kt
Vizibilitate >10km
Vremea Light Showers Rain 3.00mm precipitation
Nori Vertical Visibility of 0ft.
Few Clouds 7000ft
Broken Clouds 11000ft
Presiune 1014
Schimbă No Significant change
Brut LOWI 301750Z 27012KT 210V300 9999 -SHRA SCT070 FEW070CB BKN110 18/15 Q1014 NOSIG

VFR

18°C / 15°C

[Mai mult]
Vânt 250º 22kt Gust 37kt
Vizibilitate >10km
Vremea Light Rain in the Vicinity Thunderstorm 1.00mm precipitation
Nori Vertical Visibility of 0ft.
Few Clouds 6000ft
Broken Clouds 8000ft
Presiune 1014
Schimbă No Significant change
Brut LOWI 301720Z 25022G37KT 9999 -RA VCTS SCT060 FEW060CB BKN080 18/15 Q1014 RESHRA NOSIG

VFR

21°C / 14°C

[Mai mult]
Vânt 250º variable 210º to 270º 24kt Gust 39kt
Vizibilitate >10km
Vremea Thunderstorm
Nori Vertical Visibility of 0ft.
Few Clouds 7000ft
Broken Clouds 8000ft
Presiune 1012
Schimbă Temporary: Thunderstorm Rain .
Brut LOWI 301650Z 25024G39KT 210V270 9999 TS FEW070 FEW070CB BKN080 21/14 Q1012 TEMPO TSRA

VFR

27°C / 14°C

[Mai mult]
Vânt 180º variable 120º to 270º 10kt Gust 20kt
Vizibilitate >10km
Vremea Thunderstorm
Nori Vertical Visibility of 0ft.
Few Clouds 7000ft
Broken Clouds 8000ft
Presiune 1010
Schimbă Temporary: Wind 280º 15kt. Gust 35KT. Thunderstorm Rain .
Brut LOWI 301620Z 18010G20KT 120V270 9999 TS FEW070 FEW070CB BKN080 27/14 Q1010 TEMPO 28015G35KT TSRA

VFR

28°C / 16°C

[Mai mult]
Vânt 50º 15kt
Vizibilitate >10km
Vremea in the Vicinity Thunderstorm
Nori Vertical Visibility of 0ft.
Few Clouds 7000ft
Broken Clouds 8000ft
Presiune 1009
Schimbă Temporary: Wind 280º 15kt. Gust 30KT. Thunderstorm Rain .
Brut LOWI 301550Z 05015KT 9999 VCTS FEW070 FEW070CB BKN080 28/16 Q1009 TEMPO 28015G30KT TSRA

VFR

28°C / 16°C

[Mai mult]
Vânt 40º 15kt
Vizibilitate >10km
Vremea -
Nori Few Clouds 7000ft
Scattered Clouds 8000ft
Few Clouds 8000ft
Presiune 1008
Schimbă Temporary: from 1530 Wind 280º 15kt. Gust 35KT. Thunderstorm Rain .
Brut LOWI 301520Z 04015KT 9999 FEW070 SCT080 FEW080CB 28/16 Q1008 TEMPO FM1530 28015G35KT TSRA

VFR

30°C / 16°C

[Mai mult]
Vânt 70º 14kt
Vizibilitate >10km
Vremea -
Nori Scattered Clouds 8000ft
Few Clouds 8000ft
Presiune 1009
Schimbă No Significant change
Brut LOWI 301450Z 07014KT 9999 SCT080 FEW080CB 30/16 Q1009 NOSIG

VFR

30°C / 17°C

[Mai mult]
Vânt 70º variable 040º to 110º 12kt
Vizibilitate >10km
Vremea -
Nori Few Clouds 8000ft
Few Clouds 8000ft
Presiune 1009
Schimbă No Significant change
Brut LOWI 301420Z 07012KT 040V110 9999 FEW080 FEW080CB 30/17 Q1009 NOSIG

VFR

30°C / 18°C

[Mai mult]
Vânt 80º 10kt
Vizibilitate >10km
Vremea -
Nori Few Clouds 7000ft
Presiune 1010
Schimbă No Significant change
Brut LOWI 301350Z 08010KT 9999 FEW070 30/18 Q1010 NOSIG

VFR

29°C / 17°C

[Mai mult]
Vânt 80º variable 030º to 120º 8kt
Vizibilitate >10km
Vremea -
Nori Few Clouds 7000ft
Presiune 1010
Schimbă No Significant change
Brut LOWI 301320Z 08008KT 030V120 9999 FEW070 29/17 Q1010 NOSIG

VFR

29°C / 17°C

[Mai mult]
Vânt 80º 8kt
Vizibilitate >10km
Vremea -
Nori Few Clouds 7000ft
Presiune 1011
Schimbă No Significant change
Brut LOWI 301250Z 08008KT 9999 FEW070 29/17 Q1011 NOSIG

VFR

28°C / 17°C

[Mai mult]
Vânt 70º variable 020º to 100º 6kt
Vizibilitate >10km
Vremea -
Nori Few Clouds 7000ft
Presiune 1011
Schimbă No Significant change
Brut LOWI 301220Z 07006KT 020V100 9999 FEW070 28/17 Q1011 NOSIG

VFR

27°C / 18°C

[Mai mult]
Vânt 70º variable 360º to 100º 5kt
Vizibilitate >10km
Vremea -
Nori Few Clouds 7000ft
Presiune 1011
Schimbă No Significant change
Brut LOWI 301150Z 07005KT 360V100 9999 FEW070 27/18 Q1011 NOSIG

TAF pentru Innsbruck (LOWI)

From till


Maximum Temperature 20ºC on . Minimum Temperature 12ºC on .
From till Wind variable 3kt. Visibility 10km or more. Scattered Clouds 7000ft.
Temporarly from till Few Clouds 500ft. Broken Clouds 1200ft.
Becoming from till Wind 100º 10kt. Visibility 10km or more. Few Clouds 6000ft. Broken Clouds 7000ft.
Temporarly from till Wind 270º 20kt. Gust 40kt. Thunderstorm Rain . Scattered Clouds 4000ft. Broken Clouds 6000ft.
Temporarly from till Wind 270º 10kt. Gust 20kt. Showers Rain . Scattered Clouds 3000ft. Broken Clouds 5000ft.

Brut: TAF AMD LOWI 010140Z 0101/0124 VRB03KT 9999 SCT070 TX20/0111Z TN12/0103Z TEMPO 0101/0105 FEW005 BKN012 BECMG 0106/0108 10010KT FEW060CB BKN070 TEMPO 0108/0111 27020G40KT TSRA SCT040CB BKN060 TEMPO 0111/0116 27010G20KT SHRA SCT030TCU BKN050

Radar pentru Innsbruck

Burniță
Ușoară
Moderat
Greu
Foarte greu
Grindină

Markerul de locație este plasat în Innsbruck. Această animație arată radarul de precipitații pentru ultima oră, precum și o 2h prognoză. Ploaia sau ninsoarea slabă ar putea fi invizibilă pentru radar. Intensitatea precipitațiilor este codificată prin culori, de la albastru deschis la portocaliu.
Copyright 2022 Deutscher Wetterdienst / meteoblue.

Imagini satelitare și ploaie pentru Innsbruck, Austria

Markerul cu locaţia este poziţionat pe Innsbruck. [Mai mult]

Imaginea satelitară în timp real combină lumina vizibilă din timpul zilei cu radiația cu infraroșu din timpul nopții. Pe timp de noapte, imaginea nu este întunecată, deoarece radiația cu infraroșu poate detecta diferențele de temperatură. Din păcate, norii joși și ceața sunt greu de recunoscut față de temperatura de la sol, din această cauză putând fi invizibili pe timp de noapte. Imaginile satelitare Meteosat pentru Europa sunt actualizate în timp real din 5 în 5 minute. Imaginile GOES-16/GOES-17 (America de Nord și de Sud) și Himawari (Asia) sunt actualizate din 10 în 10 minute.

Cantitatea de precipitaţii este estimată cu ajutorul radarelor şi a sateliţilor. Estimările satelitare privind cantitatea de precipitaţii sunt mai puţin exacte noaptea decât în timpul zilei. Crucile portocalii marchează locurile unde fulger a fost detectat (over Europa).

Toate drepturile rezervate 2022 EUMETSAT / meteoblue. Datele despre fulgere furnizate de către nowcast.

Mergi sus